Terminal Aerodrome Forecast
Issued by NWS

Current Version | Previous Version | Graphics & Text | Print | Product List | Glossary On
Versions: 1 2 3 4 5 6 7 8 9 10 11 12 13 14 15 16 17
000
FTUS41 KPBZ 250300 AAB
TAFMGW
TAF AMD
KMGW 250318Z 2503/2524 25015G30KT P6SM -SHRA BKN015
     FM250600 25013G28KT P6SM OVC012
     FM251200 24012G24KT P6SM OVC022
     FM251800 25012G22KT P6SM BKN035=

USA.gov is the U.S. government's official web portal to all federal, state and local government web resources and services.